Watarrka Kings Canyon, Australia
Current Conditions -  °F | °C
As of 9:00 AM on Wednesday 22 Oct 2014 (Local Time) from YAYE Reporting Station
Clear Clear  
Wind Chill: 90°   Ceiling: Unl
Heat Index: 90°   Visibility: 6mi
Dew Point: 34°   Wind: 10mph
Humidity: 14%   Direction: 110°ESE
Pressure: 30.09"   Gusts: NA
Location:  24.28°S, 131.53°E
Report Text: YAYE 220000Z AUTO 11009KT 9999 // NCD 32/01 Q1019
Loading
Personal Weather Stations






























Interactive Weather Map
Tropical Storm Tracking
New forecast layout! Learn more

10-Day Weather Forecast

Advertisements
Track Severe Weather on mobile